createdAt,value
2018-02-19T00:00:53.390Z,2.00
2018-02-19T00:03:21.742Z,2.00
2018-02-19T00:05:50.874Z,2.00
2018-02-19T00:08:19.551Z,1.90
2018-02-19T00:10:47.921Z,2.10
2018-02-19T00:13:16.269Z,2.10
2018-02-19T00:15:44.617Z,2.10
2018-02-19T00:18:12.973Z,2.10
2018-02-19T00:20:41.345Z,2.20
2018-02-19T00:23:09.680Z,2.20
2018-02-19T00:25:38.033Z,2.10
2018-02-19T00:28:06.365Z,2.20
2018-02-19T00:30:34.742Z,2.20
2018-02-19T00:33:04.733Z,2.20
2018-02-19T00:35:33.875Z,2.20
2018-02-19T00:38:02.217Z,2.20
2018-02-19T00:40:31.349Z,2.30
2018-02-19T00:42:59.722Z,2.30
2018-02-19T00:45:28.941Z,2.30
2018-02-19T00:47:57.272Z,2.30
2018-02-19T00:50:26.365Z,2.30
2018-02-19T00:52:55.488Z,2.20
2018-02-19T00:55:23.837Z,2.20
2018-02-19T00:57:52.210Z,2.10
2018-02-19T01:00:20.534Z,2.10
2018-02-19T01:02:48.906Z,2.10
2018-02-19T01:05:17.228Z,2.00
2018-02-19T01:07:45.605Z,2.00
2018-02-19T01:10:14.713Z,1.90
2018-02-19T01:12:43.837Z,1.90
2018-02-19T01:15:12.166Z,1.80
2018-02-19T01:17:40.546Z,1.80
2018-02-19T01:20:08.883Z,1.90
2018-02-19T01:22:37.222Z,1.80
2018-02-19T01:25:06.337Z,1.70
2018-02-19T01:27:34.660Z,1.70
2018-02-19T01:30:03.026Z,1.70
2018-02-19T01:32:31.338Z,1.70
2018-02-19T01:34:59.690Z,1.70
2018-02-19T01:37:28.033Z,1.70
2018-02-19T01:39:56.393Z,1.70
2018-02-19T01:42:24.728Z,1.70
2018-02-19T01:44:53.093Z,1.70
2018-02-19T01:47:21.429Z,1.70
2018-02-19T01:50:01.718Z,1.80
2018-02-19T01:52:30.106Z,1.80
2018-02-19T01:54:58.462Z,1.80
2018-02-19T01:57:26.823Z,1.80
2018-02-19T01:59:55.234Z,1.80
2018-02-19T02:02:23.557Z,1.80
2018-02-19T02:04:52.653Z,1.80
2018-02-19T02:07:21.781Z,1.80
2018-02-19T02:09:50.109Z,1.80
2018-02-19T02:12:19.276Z,1.90
2018-02-19T02:14:47.601Z,1.80
2018-02-19T02:17:15.970Z,1.90
2018-02-19T02:19:45.062Z,1.90
2018-02-19T02:22:14.214Z,2.00
2018-02-19T02:24:42.566Z,1.90
2018-02-19T02:27:10.916Z,2.00
2018-02-19T02:29:39.328Z,2.00
2018-02-19T02:32:07.669Z,2.00
2018-02-19T02:34:36.029Z,2.00
2018-02-19T02:37:04.464Z,2.10
2018-02-19T02:39:32.860Z,2.10
2018-02-19T02:42:01.333Z,2.10
2018-02-19T02:44:29.681Z,2.10
2018-02-19T02:46:58.364Z,2.10
2018-02-19T02:49:27.444Z,2.20
2018-02-19T02:51:56.642Z,2.20
2018-02-19T02:54:25.754Z,2.20
2018-02-19T02:56:54.121Z,2.20
2018-02-19T02:59:22.462Z,2.20
2018-02-19T03:01:50.840Z,2.20
2018-02-19T03:04:19.201Z,2.30
2018-02-19T03:06:47.544Z,2.30
2018-02-19T03:09:15.916Z,2.30
2018-02-19T03:11:44.265Z,2.30
2018-02-19T03:14:14.149Z,2.30
2018-02-19T03:16:42.506Z,2.20
2018-02-19T03:19:10.865Z,2.30
2018-02-19T03:21:39.205Z,2.30
2018-02-19T03:24:07.592Z,2.30
2018-02-19T03:26:35.963Z,2.30
2018-02-19T03:29:04.347Z,2.30
2018-02-19T03:31:32.719Z,2.30
2018-02-19T03:34:01.144Z,2.30
2018-02-19T03:36:29.816Z,2.30
2018-02-19T03:38:58.178Z,2.30
2018-02-19T03:41:26.525Z,2.30
2018-02-19T03:43:54.877Z,2.40
2018-02-19T03:46:23.232Z,2.30
2018-02-19T03:48:51.549Z,2.30
2018-02-19T03:51:19.920Z,2.40
2018-02-19T03:53:48.245Z,2.40
2018-02-19T03:56:16.621Z,2.40
2018-02-19T03:58:44.990Z,2.40
2018-02-19T04:01:14.150Z,2.30
2018-02-19T04:03:42.476Z,2.30
2018-02-19T04:06:11.601Z,2.30
2018-02-19T04:08:39.964Z,2.30
2018-02-19T04:11:08.349Z,2.30
2018-02-19T04:13:36.680Z,2.30
2018-02-19T04:16:05.005Z,2.30
2018-02-19T04:18:33.393Z,2.30
2018-02-19T04:21:01.745Z,2.30
2018-02-19T04:23:30.138Z,2.30
2018-02-19T04:25:58.572Z,2.20
2018-02-19T04:28:26.939Z,2.20
2018-02-19T04:30:57.104Z,2.20
2018-02-19T04:33:26.247Z,2.20
2018-02-19T04:35:54.602Z,2.10
2018-02-19T04:38:22.997Z,2.10
2018-02-19T04:40:51.328Z,2.10
2018-02-19T04:43:20.585Z,2.10
2018-02-19T04:45:54.749Z,2.10
2018-02-19T04:48:23.110Z,2.00
2018-02-19T04:50:52.210Z,2.00
2018-02-19T04:53:20.619Z,2.00
2018-02-19T04:55:48.962Z,2.00
2018-02-19T04:58:18.145Z,2.00
2018-02-19T05:00:47.258Z,2.00
2018-02-19T05:03:16.399Z,2.00
2018-02-19T05:05:44.760Z,2.00
2018-02-19T05:08:13.145Z,2.00
2018-02-19T05:10:41.496Z,2.10
2018-02-19T05:13:09.837Z,2.10
2018-02-19T05:15:38.217Z,2.10
2018-02-19T05:18:06.532Z,2.10
2018-02-19T05:20:34.946Z,2.20
2018-02-19T05:23:03.276Z,2.20
2018-02-19T05:25:31.643Z,2.30
2018-02-19T05:27:59.977Z,2.30
2018-02-19T05:30:28.357Z,2.30
2018-02-19T05:32:56.715Z,2.30
2018-02-19T05:35:25.101Z,2.30
2018-02-19T05:37:53.457Z,2.30
2018-02-19T05:40:21.949Z,2.40
2018-02-19T05:42:50.293Z,2.40
2018-02-19T05:45:19.404Z,2.40
2018-02-19T05:47:47.825Z,2.30
2018-02-19T05:50:16.159Z,2.40
2018-02-19T05:52:44.565Z,2.40
2018-02-19T05:55:12.917Z,2.40
2018-02-19T05:57:41.295Z,2.40
2018-02-19T06:00:09.630Z,2.40
2018-02-19T06:02:38.790Z,2.50
2018-02-19T06:05:07.169Z,2.40
2018-02-19T06:07:35.530Z,2.50
2018-02-19T06:10:03.865Z,2.50
2018-02-19T06:12:33.042Z,2.50
2018-02-19T06:15:01.404Z,2.50
2018-02-19T06:17:29.809Z,2.50
2018-02-19T06:19:58.452Z,2.50
2018-02-19T06:22:26.817Z,2.50
2018-02-19T06:24:55.223Z,2.60
2018-02-19T06:27:23.563Z,2.60
2018-02-19T06:29:51.945Z,2.60
2018-02-19T06:32:20.345Z,2.70
2018-02-19T06:34:48.720Z,2.70
2018-02-19T06:37:17.045Z,2.70
2018-02-19T06:39:45.468Z,2.70
2018-02-19T06:42:14.574Z,2.80
2018-02-19T06:44:42.948Z,2.80
2018-02-19T06:47:11.389Z,2.80
2018-02-19T06:49:39.764Z,2.80
2018-02-19T06:52:08.871Z,2.90
2018-02-19T06:54:37.998Z,2.90
2018-02-19T06:57:06.338Z,2.80
2018-02-19T06:59:35.539Z,2.90
2018-02-19T07:02:04.636Z,3.00
2018-02-19T07:04:33.754Z,3.00
2018-02-19T07:07:03.066Z,3.00
2018-02-19T07:09:31.426Z,3.00
2018-02-19T07:11:59.927Z,3.00
2018-02-19T07:14:28.274Z,3.00
2018-02-19T07:16:57.430Z,3.10
2018-02-19T07:19:25.788Z,3.00
2018-02-19T07:21:54.169Z,3.10
2018-02-19T07:24:22.505Z,3.10
2018-02-19T07:26:50.892Z,3.10
2018-02-19T07:29:19.253Z,3.20
2018-02-19T07:31:47.677Z,3.20
2018-02-19T07:34:16.029Z,3.20
2018-02-19T07:36:44.428Z,3.30
2018-02-19T07:39:12.780Z,3.30
2018-02-19T07:41:41.122Z,3.30
2018-02-19T07:44:09.556Z,3.40
2018-02-19T07:46:38.640Z,3.50
2018-02-19T07:49:07.144Z,3.50
2018-02-19T07:51:35.528Z,3.60
2018-02-19T07:54:03.911Z,3.60
2018-02-19T07:56:32.242Z,3.70
2018-02-19T07:59:01.389Z,3.80
2018-02-19T08:01:29.715Z,3.70
2018-02-19T08:03:58.105Z,3.80
2018-02-19T08:06:26.493Z,3.90
2018-02-19T08:08:54.900Z,3.90
2018-02-19T08:11:24.029Z,4.00
2018-02-19T08:13:52.402Z,4.00
2018-02-19T08:16:20.825Z,4.00
2018-02-19T08:18:49.249Z,4.10
2018-02-19T08:21:17.613Z,4.20
2018-02-19T08:23:45.956Z,4.20
2018-02-19T08:26:14.346Z,4.30
2018-02-19T08:28:42.711Z,4.30
2018-02-19T08:31:11.109Z,4.30
2018-02-19T08:33:39.441Z,4.30
2018-02-19T08:36:08.597Z,4.50
2018-02-19T08:38:36.962Z,4.40
2018-02-19T08:41:05.342Z,4.40
2018-02-19T08:43:33.871Z,4.50
2018-02-19T08:46:02.320Z,4.50
2018-02-19T08:48:30.692Z,4.60
2018-02-19T08:50:59.210Z,4.70
2018-02-19T08:53:27.590Z,4.80
2018-02-19T08:55:56.699Z,5.00
2018-02-19T08:58:25.066Z,4.90
2018-02-19T09:00:54.208Z,5.10
2018-02-19T09:03:22.604Z,5.10
2018-02-19T09:05:50.942Z,5.20
2018-02-19T09:08:19.293Z,5.30
2018-02-19T09:10:47.637Z,5.40
2018-02-19T09:13:17.698Z,5.50
2018-02-19T09:15:46.034Z,5.50
2018-02-19T09:18:14.412Z,5.60
2018-02-19T09:20:44.572Z,5.70
2018-02-19T09:23:13.697Z,5.80
2018-02-19T09:25:42.041Z,5.80
2018-02-19T09:28:10.417Z,5.90
2018-02-19T09:30:38.763Z,5.90
2018-02-19T09:33:07.102Z,6.10
2018-02-19T09:35:35.465Z,6.20
2018-02-19T09:38:03.797Z,6.10
2018-02-19T09:40:32.193Z,6.20
2018-02-19T09:43:01.296Z,6.50
2018-02-19T09:45:30.424Z,6.50
2018-02-19T09:47:58.746Z,6.50
2018-02-19T09:50:27.104Z,6.60
2018-02-19T09:52:55.573Z,6.70
2018-02-19T09:55:23.940Z,6.80
2018-02-19T09:57:52.261Z,6.80
2018-02-19T10:00:20.629Z,6.70
2018-02-19T10:02:48.953Z,6.80
2018-02-19T10:05:17.533Z,6.80
2018-02-19T10:07:45.886Z,6.90
2018-02-19T10:10:15.016Z,7.00
2018-02-19T10:12:43.369Z,6.90
2018-02-19T10:15:12.521Z,6.90
2018-02-19T10:17:40.865Z,6.90
2018-02-19T10:20:09.212Z,6.90
2018-02-19T10:22:38.628Z,7.10
2018-02-19T10:25:06.972Z,7.00
2018-02-19T10:27:35.335Z,7.20
2018-02-19T10:30:03.675Z,7.20
2018-02-19T10:32:32.027Z,7.10
2018-02-19T10:35:00.397Z,7.10
2018-02-19T10:37:28.782Z,7.00
2018-02-19T10:39:57.150Z,7.00
2018-02-19T10:42:26.156Z,7.10
2018-02-19T10:44:55.254Z,7.10
2018-02-19T10:47:23.589Z,7.10
2018-02-19T10:49:51.957Z,7.00
2018-02-19T10:52:20.298Z,6.90
2018-02-19T10:54:48.689Z,6.90
2018-02-19T10:57:17.021Z,6.80
2018-02-19T10:59:46.165Z,6.90
2018-02-19T11:02:14.504Z,6.90
2018-02-19T11:04:43.647Z,7.10
2018-02-19T11:07:11.997Z,7.10
2018-02-19T11:09:40.410Z,7.20
2018-02-19T11:12:08.737Z,7.20
2018-02-19T11:14:37.120Z,7.20
2018-02-19T11:17:06.208Z,7.10
2018-02-19T11:19:35.368Z,7.10
2018-02-19T11:22:03.733Z,7.10
2018-02-19T11:24:32.066Z,7.00
2018-02-19T11:29:36.053Z,6.90
2018-02-19T11:32:04.454Z,6.90
2018-02-19T11:34:32.762Z,6.90
2018-02-19T11:37:01.119Z,7.00
2018-02-19T11:39:30.206Z,6.80
2018-02-19T11:41:59.354Z,6.60
2018-02-19T11:44:28.010Z,6.60
2018-02-19T11:46:56.360Z,6.60
2018-02-19T11:49:25.483Z,6.50
2018-02-19T11:51:53.901Z,6.40
2018-02-19T11:54:22.242Z,6.40
2018-02-19T11:56:50.586Z,6.50
2018-02-19T11:59:18.961Z,6.50
2018-02-19T12:01:47.295Z,6.60
2018-02-19T12:04:15.960Z,6.70
2018-02-19T12:06:44.311Z,6.70
2018-02-19T12:09:13.440Z,6.70
2018-02-19T12:11:41.774Z,6.60
2018-02-19T12:14:10.146Z,6.60
2018-02-19T12:16:39.263Z,6.60
2018-02-19T12:19:07.677Z,6.60
2018-02-19T12:21:36.005Z,6.50
2018-02-19T12:24:05.065Z,6.40
2018-02-19T12:26:33.467Z,6.30
2018-02-19T12:29:01.825Z,6.20
2018-02-19T12:31:30.217Z,6.30
2018-02-19T12:33:58.549Z,6.30
2018-02-19T12:36:26.917Z,6.40
2018-02-19T12:38:56.012Z,6.50
2018-02-19T12:41:24.399Z,6.50
2018-02-19T12:43:52.761Z,6.50
2018-02-19T12:46:21.158Z,6.50
2018-02-19T12:48:49.524Z,6.40
2018-02-19T12:51:17.885Z,6.30
2018-02-19T12:53:47.020Z,6.30
2018-02-19T12:56:15.397Z,6.30
2018-02-19T12:58:43.844Z,6.40
2018-02-19T13:01:12.187Z,6.40
2018-02-19T13:03:40.561Z,6.40
2018-02-19T13:06:08.893Z,6.40
2018-02-19T13:08:37.289Z,6.60
2018-02-19T13:11:05.614Z,6.70
2018-02-19T13:13:34.047Z,6.70
2018-02-19T13:16:02.393Z,6.80
2018-02-19T13:18:30.787Z,7.00
2018-02-19T13:20:59.461Z,7.00
2018-02-19T13:23:27.849Z,7.10
2018-02-19T13:25:56.301Z,7.20
2018-02-19T13:28:25.443Z,7.20
2018-02-19T13:30:53.788Z,7.10
2018-02-19T13:33:22.164Z,7.00
2018-02-19T13:35:50.579Z,7.00
2018-02-19T13:38:18.932Z,6.90
2018-02-19T13:40:47.321Z,6.90
2018-02-19T13:43:15.681Z,7.00
2018-02-19T13:45:44.066Z,6.90
2018-02-19T13:48:12.430Z,6.90
2018-02-19T13:50:40.815Z,7.00
2018-02-19T13:53:09.905Z,7.10
2018-02-19T13:55:38.273Z,7.10
2018-02-19T13:58:06.628Z,7.20
2018-02-19T14:00:35.049Z,7.30
2018-02-19T14:03:03.393Z,7.30
2018-02-19T14:05:32.577Z,7.40
2018-02-19T14:08:00.920Z,7.30
2018-02-19T14:10:29.359Z,7.50
2018-02-19T14:12:58.478Z,7.60
2018-02-19T14:15:26.817Z,7.50
2018-02-19T14:17:55.180Z,7.40
2018-02-19T14:20:23.618Z,7.40
2018-02-19T14:22:51.982Z,7.50
2018-02-19T14:25:20.317Z,7.50
2018-02-19T14:27:48.685Z,7.60
2018-02-19T14:30:17.030Z,7.70
2018-02-19T14:32:45.415Z,7.60
2018-02-19T14:35:13.855Z,7.70
2018-02-19T14:37:42.273Z,7.70
2018-02-19T14:40:10.592Z,7.60
2018-02-19T14:42:38.977Z,7.50
2018-02-19T14:45:07.381Z,7.40
2018-02-19T14:47:35.706Z,7.20
2018-02-19T14:50:04.060Z,7.00
2018-02-19T14:52:32.396Z,6.80
2018-02-19T14:55:01.513Z,6.30
2018-02-19T14:57:29.901Z,6.30
2018-02-19T14:59:58.493Z,6.20
2018-02-19T15:02:26.873Z,6.10
2018-02-19T15:04:55.236Z,6.00
2018-02-19T15:07:23.603Z,5.80
2018-02-19T15:09:52.197Z,5.60
2018-02-19T15:12:20.543Z,5.50
2018-02-19T15:14:49.706Z,5.10
2018-02-19T15:17:18.065Z,5.00
2018-02-19T15:19:46.427Z,5.00
2018-02-19T15:22:15.186Z,4.90
2018-02-19T15:24:44.329Z,4.70
2018-02-19T15:27:12.714Z,4.70
2018-02-19T15:29:41.121Z,4.60
2018-02-19T15:32:09.478Z,4.60
2018-02-19T15:34:40.258Z,4.50
2018-02-19T15:37:08.630Z,4.50
2018-02-19T15:39:36.973Z,4.50
2018-02-19T15:42:05.709Z,4.50
2018-02-19T15:44:34.050Z,4.50
2018-02-19T15:47:02.362Z,4.60
2018-02-19T15:49:30.747Z,4.60
2018-02-19T15:52:00.862Z,4.80
2018-02-19T15:54:29.237Z,4.70
2018-02-19T15:56:58.334Z,4.80
2018-02-19T15:59:27.465Z,4.90
2018-02-19T16:01:55.815Z,4.80
2018-02-19T16:04:24.307Z,4.90
2018-02-19T16:06:52.635Z,4.80
2018-02-19T16:09:22.552Z,4.80
2018-02-19T16:11:51.680Z,4.80
2018-02-19T16:14:20.048Z,4.70
2018-02-19T16:16:49.169Z,4.70
2018-02-19T16:19:17.521Z,4.70
2018-02-19T16:21:45.853Z,4.70
2018-02-19T16:24:14.222Z,4.70
2018-02-19T16:26:42.577Z,4.60
2018-02-19T16:29:10.958Z,4.60
2018-02-19T16:31:39.303Z,4.60
2018-02-19T16:34:07.638Z,4.50
2018-02-19T16:36:36.012Z,4.50
2018-02-19T16:39:04.345Z,4.50
2018-02-19T16:41:32.702Z,4.40
2018-02-19T16:44:01.798Z,4.30
2018-02-19T16:46:30.708Z,4.30
2018-02-19T16:48:59.038Z,4.30
2018-02-19T16:51:27.414Z,4.20
2018-02-19T16:53:55.749Z,4.20
2018-02-19T16:56:24.130Z,4.10
2018-02-19T16:58:52.460Z,4.10
2018-02-19T17:01:20.793Z,4.10
2018-02-19T17:03:49.150Z,4.00
2018-02-19T17:06:17.485Z,4.00
2018-02-19T17:08:46.632Z,3.90
2018-02-19T17:11:15.188Z,3.80
2018-02-19T17:13:43.574Z,3.80
2018-02-19T17:16:11.966Z,3.80
2018-02-19T17:18:40.381Z,3.70
2018-02-19T17:21:08.732Z,3.60
2018-02-19T17:23:38.609Z,3.60
2018-02-19T17:26:07.777Z,3.50
2018-02-19T17:28:36.164Z,3.40
2018-02-19T17:31:06.029Z,3.30
2018-02-19T17:33:34.357Z,3.40
2018-02-19T17:36:02.721Z,3.40
2018-02-19T17:38:31.044Z,3.40
2018-02-19T17:41:01.693Z,3.30
2018-02-19T17:43:30.061Z,3.20
2018-02-19T17:45:58.401Z,3.30
2018-02-19T17:48:28.271Z,3.10
2018-02-19T17:50:56.597Z,3.10
2018-02-19T17:53:24.965Z,3.20
2018-02-19T17:55:54.817Z,3.10
2018-02-19T17:58:23.193Z,3.10
2018-02-19T18:00:51.525Z,3.10
2018-02-19T18:03:20.693Z,3.10
2018-02-19T18:05:49.026Z,3.10
2018-02-19T18:08:18.163Z,3.00
2018-02-19T18:13:23.087Z,3.00
2018-02-19T18:15:51.447Z,3.00
2018-02-19T18:18:19.754Z,3.00
2018-02-19T18:20:48.083Z,3.00
2018-02-19T18:23:16.450Z,3.00
2018-02-19T18:25:44.778Z,3.00
2018-02-19T18:28:13.178Z,3.00
2018-02-19T18:30:41.543Z,3.00
2018-02-19T18:33:09.918Z,3.00
2018-02-19T18:35:38.261Z,3.00
2018-02-19T18:38:07.386Z,3.00
2018-02-19T18:40:35.737Z,3.00
2018-02-19T18:43:04.844Z,3.00
2018-02-19T18:45:33.200Z,3.00
2018-02-19T18:48:01.571Z,3.10
2018-02-19T18:50:29.894Z,3.10
2018-02-19T18:52:58.278Z,3.10
2018-02-19T18:55:26.607Z,3.10
2018-02-19T18:57:55.021Z,3.10
2018-02-19T19:00:23.375Z,3.00
2018-02-19T19:02:52.475Z,3.00
2018-02-19T19:05:21.613Z,3.10
2018-02-19T19:08:01.961Z,3.00
2018-02-19T19:10:42.210Z,3.10
2018-02-19T19:13:10.524Z,3.00
2018-02-19T19:15:38.872Z,3.00
2018-02-19T19:18:07.190Z,3.00
2018-02-19T19:20:35.541Z,3.00
2018-02-19T19:23:05.014Z,2.90
2018-02-19T19:25:33.351Z,2.90
2018-02-19T19:28:01.757Z,2.90
2018-02-19T19:30:30.858Z,2.80
2018-02-19T19:32:59.950Z,2.70
2018-02-19T19:35:28.359Z,2.70
2018-02-19T19:37:56.691Z,2.70
2018-02-19T19:40:25.936Z,2.70
2018-02-19T19:42:54.253Z,2.70
2018-02-19T19:45:22.630Z,2.70
2018-02-19T19:47:52.478Z,2.70
2018-02-19T19:50:20.853Z,2.70
2018-02-19T19:52:49.956Z,2.80
2018-02-19T19:55:18.332Z,2.70
2018-02-19T19:57:46.661Z,2.80
2018-02-19T20:00:15.038Z,2.80
2018-02-19T20:02:43.367Z,2.80
2018-02-19T20:05:11.718Z,2.80
2018-02-19T20:07:40.107Z,2.80
2018-02-19T20:10:08.507Z,2.90
2018-02-19T20:12:36.936Z,2.90
2018-02-19T20:15:05.326Z,2.90
2018-02-19T20:17:33.984Z,2.90
2018-02-19T20:20:02.314Z,2.90
2018-02-19T20:22:30.676Z,2.90
2018-02-19T20:24:59.037Z,2.90
2018-02-19T20:27:28.909Z,2.90
2018-02-19T20:29:57.270Z,2.90
2018-02-19T20:32:25.616Z,3.00
2018-02-19T20:34:54.745Z,3.00
2018-02-19T20:37:23.106Z,2.90
2018-02-19T20:39:51.472Z,3.00
2018-02-19T20:42:19.828Z,3.00
2018-02-19T20:44:48.224Z,2.90
2018-02-19T20:47:17.325Z,3.00
2018-02-19T20:49:45.696Z,2.90
2018-02-19T20:52:14.789Z,2.90
2018-02-19T20:54:43.186Z,2.90
2018-02-19T20:57:11.545Z,2.90
2018-02-19T20:59:40.683Z,2.90
2018-02-19T21:02:08.998Z,2.90
2018-02-19T21:04:38.156Z,2.90
2018-02-19T21:07:06.494Z,2.90
2018-02-19T21:09:35.600Z,2.90
2018-02-19T21:12:04.010Z,2.90
2018-02-19T21:14:32.333Z,2.90
2018-02-19T21:17:00.730Z,3.00
2018-02-19T21:19:29.094Z,3.00
2018-02-19T21:21:57.485Z,3.00
2018-02-19T21:24:25.860Z,3.00
2018-02-19T21:26:54.241Z,3.00
2018-02-19T21:29:22.586Z,3.00
2018-02-19T21:31:51.737Z,2.90
2018-02-19T21:34:20.093Z,2.90
2018-02-19T21:36:48.481Z,2.90
2018-02-19T21:39:16.860Z,2.90
2018-02-19T21:41:45.214Z,3.00
2018-02-19T21:44:13.605Z,2.90
2018-02-19T21:46:41.962Z,2.90
2018-02-19T21:49:11.125Z,2.90
2018-02-19T21:51:39.456Z,2.80
2018-02-19T21:54:07.839Z,2.80
2018-02-19T21:56:36.161Z,2.80
2018-02-19T21:59:04.537Z,2.70
2018-02-19T22:01:33.300Z,2.70
2018-02-19T22:04:01.681Z,2.70
2018-02-19T22:06:30.028Z,2.70
2018-02-19T22:08:58.429Z,2.70
2018-02-19T22:11:26.790Z,2.70
2018-02-19T22:13:55.205Z,2.60
2018-02-19T22:16:23.559Z,2.60
2018-02-19T22:18:51.913Z,2.50
2018-02-19T22:21:21.033Z,2.50
2018-02-19T22:23:49.419Z,2.50
2018-02-19T22:26:17.809Z,2.40
2018-02-19T22:28:46.144Z,2.50
2018-02-19T22:31:14.551Z,2.50
2018-02-19T22:33:42.881Z,2.50
2018-02-19T22:36:11.231Z,2.50
2018-02-19T22:38:39.566Z,2.50
2018-02-19T22:41:07.975Z,2.50
2018-02-19T22:43:36.301Z,2.50
2018-02-19T22:46:04.789Z,2.50
2018-02-19T22:48:33.927Z,2.40
2018-02-19T22:51:02.263Z,2.40
2018-02-19T22:53:31.391Z,2.30
2018-02-19T22:55:59.741Z,2.30
2018-02-19T22:58:28.117Z,2.30
2018-02-19T23:00:56.517Z,2.30
2018-02-19T23:03:24.933Z,2.30
2018-02-19T23:05:53.269Z,2.30
2018-02-19T23:08:21.660Z,2.20
2018-02-19T23:10:50.022Z,2.20
2018-02-19T23:13:18.366Z,2.20
2018-02-19T23:15:47.509Z,2.20
2018-02-19T23:18:15.981Z,2.10
2018-02-19T23:20:45.193Z,2.10
2018-02-19T23:23:13.557Z,2.10
2018-02-19T23:25:42.229Z,2.10
2018-02-19T23:28:10.622Z,2.00
2018-02-19T23:30:38.957Z,2.00
2018-02-19T23:33:07.281Z,2.00
2018-02-19T23:35:35.672Z,1.90
2018-02-19T23:38:03.989Z,1.80
2018-02-19T23:40:32.361Z,1.80
2018-02-19T23:43:00.678Z,1.60
2018-02-19T23:45:29.063Z,1.60
2018-02-19T23:47:57.377Z,1.60
2018-02-19T23:50:26.503Z,1.50
2018-02-19T23:52:55.216Z,1.40
2018-02-19T23:55:23.562Z,1.50
2018-02-19T23:57:51.973Z,1.40
